6°C Temp
5°C Point de rosée
93% Humidité
Température
8 KM/H
5 MPH
4 KTS
30°
Nord Nord
Est

Vitesse du Vent
Couvert
Préssion 1008.92 (hPa) - 29.79 (in)
Visibilité 6.2 (mi) - 10.0 (km)

Conditions Actuelles
LFBU
Location 6(km)
Metar :LFBU 171800Z AUTO 03004KT 9999 OVC038 06/05 Q1009 TEMPO 4000 BR
Dernière mise à jour: 17-11-2019 19:53

Aéroport
  Métar Aviation Données API fournies par https://www.checkwx.com/ PHP scripts by weather34.com ©2019